Time;durP1;ratioP1;P1;durP2;ratioP2;P2;SDS_P1;SDS_P2;PMS_P1;PMS_P2;Temp;Humidity;BMP_temperature;BMP_pressure;BME280_temperature;BME280_humidity;BME280_pressure;Samples;Min_cycle;Max_cycle;Signal;HPM_P1;HPM_P2
2022/06/29 00:01:42;;;;;;;6.33;5.83;;;23.30;99.90;;;;;;5079221;28;20951;-82
2022/06/29 00:04:31;;;;;;;5.40;5.00;;;23.30;99.90;;;;;;5065127;28;20448;-84
2022/06/29 00:07:16;;;;;;;9.00;5.50;;;23.20;99.90;;;;;;5036640;28;20419;-83
2022/06/29 00:10:00;;;;;;;6.83;5.60;;;23.20;99.90;;;;;;5080442;28;20401;-82
2022/06/29 00:12:47;;;;;;;6.57;5.97;;;23.20;99.90;;;;;;5081071;28;20381;-84
2022/06/29 00:15:31;;;;;;;7.47;5.30;;;23.10;99.90;;;;;;5082821;28;20501;-84
2022/06/29 00:18:17;;;;;;;5.20;4.73;;;23.10;99.90;;;;;;5081535;28;20381;-85
2022/06/29 00:21:01;;;;;;;5.43;4.97;;;23.10;99.90;;;;;;5081813;28;20405;-83
2022/06/29 00:23:46;;;;;;;6.40;5.87;;;23.10;99.90;;;;;;5081526;28;20411;-83
2022/06/29 00:26:31;;;;;;;6.10;5.60;;;23.10;99.90;;;;;;5079655;28;20403;-83
2022/06/29 00:29:15;;;;;;;6.67;5.80;;;23.10;99.90;;;;;;5079972;28;20877;-83
2022/06/29 00:32:00;;;;;;;5.30;4.90;;;23.10;99.90;;;;;;5079906;28;20442;-83
2022/06/29 00:34:45;;;;;;;6.90;6.30;;;23.10;99.90;;;;;;5079351;28;20483;-84
2022/06/29 00:37:30;;;;;;;6.53;5.93;;;23.00;99.90;;;;;;5079780;28;20393;-83
2022/06/29 00:40:14;;;;;;;6.87;5.40;;;23.10;99.90;;;;;;5064250;28;20427;-82
2022/06/29 00:42:59;;;;;;;6.23;5.53;;;23.00;99.90;;;;;;5064869;28;20409;-84
2022/06/29 00:45:43;;;;;;;6.30;5.80;;;23.10;99.90;;;;;;5079355;28;20400;-83
2022/06/29 00:48:28;;;;;;;6.47;5.70;;;23.00;99.90;;;;;;5079462;28;20396;-82
2022/06/29 00:51:17;;;;;;;7.00;6.30;;;22.90;99.90;;;;;;5064523;28;20427;-84
2022/06/29 00:54:05;;;;;;;6.13;5.63;;;22.80;99.90;;;;;;5080082;28;20404;-84
2022/06/29 00:56:51;;;;;;;6.40;5.80;;;22.90;99.90;;;;;;5080105;28;20787;-84
2022/06/29 00:59:43;;;;;;;6.43;5.93;;;22.80;99.90;;;;;;5080336;28;20416;-84
2022/06/29 01:02:32;;;;;;;6.60;6.00;;;22.80;99.90;;;;;;5081635;28;20413;-83
2022/06/29 01:05:16;;;;;;;5.60;5.20;;;22.80;99.90;;;;;;5092049;28;20385;-83
2022/06/29 01:08:02;;;;;;;6.23;5.77;;;22.80;99.90;;;;;;5092815;28;20381;-84
2022/06/29 01:10:47;;;;;;;6.03;5.53;;;22.80;99.90;;;;;;5090645;28;20428;-84
2022/06/29 01:13:31;;;;;;;9.07;6.20;;;22.80;99.90;;;;;;5080686;28;20392;-84
2022/06/29 01:16:16;;;;;;;11.47;6.73;;;22.80;99.90;;;;;;5080073;28;20459;-84
2022/06/29 01:19:00;;;;;;;6.63;6.03;;;22.80;99.90;;;;;;5064918;28;20399;-83
2022/06/29 01:21:50;;;;;;;7.63;6.93;;;22.80;99.90;;;;;;5079886;28;20385;-83
2022/06/29 01:24:34;;;;;;;7.27;6.70;;;22.80;99.90;;;;;;5080129;28;20389;-83
2022/06/29 01:27:20;;;;;;;6.20;5.70;;;22.80;99.90;;;;;;5080174;28;20428;-84
2022/06/29 01:30:07;;;;;;;8.10;6.13;;;22.80;99.90;;;;;;5080128;28;20380;-83
2022/06/29 01:32:52;;;;;;;7.50;6.90;;;22.70;99.90;;;;;;5079858;28;20380;-83
2022/06/29 01:35:37;;;;;;;6.83;6.33;;;22.80;99.90;;;;;;5079515;28;20559;-83
2022/06/29 01:38:21;;;;;;;6.87;6.27;;;22.70;99.90;;;;;;5079973;28;20389;-83
2022/06/29 01:41:08;;;;;;;6.40;5.90;;;22.70;99.90;;;;;;5079479;28;20455;-83
2022/06/29 01:43:52;;;;;;;5.63;5.10;;;22.60;99.90;;;;;;5079505;28;20392;-83
2022/06/29 01:46:37;;;;;;;7.67;7.07;;;22.60;99.90;;;;;;5079454;28;20404;-83
2022/06/29 01:49:23;;;;;;;6.43;6.00;;;22.60;99.90;;;;;;5079451;28;20393;-83
2022/06/29 01:52:08;;;;;;;6.90;6.30;;;22.50;99.90;;;;;;5079383;28;20401;-83
2022/06/29 01:54:52;;;;;;;11.60;6.27;;;22.50;99.90;;;;;;5079702;28;21001;-83
2022/06/29 01:57:37;;;;;;;7.07;6.40;;;22.40;99.90;;;;;;5079584;28;20460;-83
2022/06/29 02:00:22;;;;;;;5.43;4.93;;;22.40;99.90;;;;;;5079938;28;20448;-83
2022/06/29 02:03:07;;;;;;;6.90;6.30;;;22.30;99.90;;;;;;5084189;28;20411;-83
2022/06/29 02:05:51;;;;;;;6.90;6.40;;;22.30;99.90;;;;;;5084553;28;20409;-83
2022/06/29 02:08:36;;;;;;;7.03;6.40;;;22.20;99.90;;;;;;5085375;28;20412;-83
2022/06/29 02:11:23;;;;;;;7.93;6.87;;;22.30;99.90;;;;;;5083856;28;20412;-83
2022/06/29 02:14:08;;;;;;;6.37;5.77;;;22.30;99.90;;;;;;5084138;28;20439;-83
2022/06/29 02:16:53;;;;;;;7.10;6.50;;;22.20;99.90;;;;;;5083394;28;20393;-83
2022/06/29 02:19:38;;;;;;;6.57;6.07;;;22.20;99.90;;;;;;5083013;28;20401;-83
2022/06/29 02:22:23;;;;;;;6.30;5.80;;;22.20;99.90;;;;;;5082480;28;20461;-83
2022/06/29 02:25:09;;;;;;;8.63;7.70;;;22.10;99.90;;;;;;5083245;28;20385;-83
2022/06/29 02:27:53;;;;;;;7.03;6.53;;;22.10;99.90;;;;;;5083166;28;20492;-84
2022/06/29 02:36:35;;;;;;;7.20;6.60;;;22.10;99.90;;;;;;5087944;28;20395;-83
2022/06/29 02:39:20;;;;;;;7.40;6.70;;;22.10;99.90;;;;;;5098564;28;20411;-82
2022/06/29 02:42:06;;;;;;;7.93;7.27;;;22.10;99.90;;;;;;5097107;28;20380;-83
2022/06/29 02:44:50;;;;;;;7.60;7.00;;;22.10;99.90;;;;;;5084035;28;20409;-83
2022/06/29 02:47:35;;;;;;;7.60;6.40;;;22.10;99.90;;;;;;5083398;28;20400;-84
2022/06/29 02:50:19;;;;;;;8.93;8.10;;;22.10;99.90;;;;;;5082578;28;20385;-83
2022/06/29 02:53:04;;;;;;;7.67;6.97;;;22.20;99.90;;;;;;5082733;28;20948;-83
2022/06/29 02:55:48;;;;;;;7.40;6.30;;;22.20;99.90;;;;;;5081925;28;20642;-83
2022/06/29 02:58:33;;;;;;;7.43;6.90;;;22.20;99.90;;;;;;5082755;28;20381;-83
2022/06/29 03:01:18;;;;;;;7.67;6.97;;;22.20;99.90;;;;;;5082295;28;20511;-83
2022/06/29 03:04:04;;;;;;;7.33;6.40;;;22.20;99.90;;;;;;5082472;28;20422;-83
2022/06/29 03:06:48;;;;;;;7.70;6.90;;;22.10;99.90;;;;;;5082141;28;20600;-83
2022/06/29 03:09:33;;;;;;;8.20;7.43;;;22.10;99.90;;;;;;5082182;28;20373;-83
2022/06/29 03:12:17;;;;;;;7.80;7.10;;;22.10;99.90;;;;;;5082029;28;20384;-83
2022/06/29 03:15:02;;;;;;;7.13;6.53;;;22.10;99.90;;;;;;5082143;28;20524;-83
2022/06/29 03:17:47;;;;;;;7.13;6.63;;;22.00;99.90;;;;;;5082360;28;20397;-83
2022/06/29 03:20:31;;;;;;;7.70;7.00;;;22.00;99.90;;;;;;5082238;28;20401;-83
2022/06/29 03:23:16;;;;;;;9.60;7.30;;;22.10;99.90;;;;;;5082572;28;20393;-83
2022/06/29 03:26:01;;;;;;;8.40;7.60;;;22.10;99.90;;;;;;5081995;28;20794;-83
2022/06/29 03:28:52;;;;;;;7.80;7.10;;;22.10;99.90;;;;;;5082134;28;20411;-83
2022/06/29 03:31:37;;;;;;;7.60;6.90;;;22.10;99.90;;;;;;5081863;28;20393;-83
2022/06/29 03:34:23;;;;;;;8.10;7.30;;;22.00;99.90;;;;;;5082303;28;20533;-83
2022/06/29 03:37:08;;;;;;;8.13;7.43;;;22.00;99.90;;;;;;5082120;28;20405;-83
2022/06/29 03:39:52;;;;;;;8.90;8.03;;;22.00;99.90;;;;;;5082231;28;20439;-83
2022/06/29 03:42:37;;;;;;;8.83;7.90;;;22.00;99.90;;;;;;5082666;28;20385;-83
2022/06/29 03:45:22;;;;;;;8.70;7.90;;;22.00;99.90;;;;;;5087102;28;20397;-81
2022/06/29 03:48:07;;;;;;;8.10;7.40;;;21.90;99.90;;;;;;5084243;28;20382;-83
2022/06/29 03:50:52;;;;;;;9.03;8.30;;;21.90;99.90;;;;;;5074202;28;20417;-81
2022/06/29 03:53:36;;;;;;;9.10;8.30;;;21.90;99.90;;;;;;5076043;28;20425;-82
2022/06/29 03:56:21;;;;;;;7.67;6.87;;;21.90;99.90;;;;;;5066175;28;20449;-84
2022/06/29 03:59:06;;;;;;;8.50;7.70;;;21.90;99.90;;;;;;5061466;28;20731;-84
2022/06/29 04:01:50;;;;;;;7.97;7.17;;;21.90;99.90;;;;;;5041494;28;20446;-84
2022/06/29 04:04:35;;;;;;;7.63;7.03;;;21.90;99.90;;;;;;5041980;28;20434;-84
2022/06/29 04:07:20;;;;;;;8.03;7.33;;;21.90;99.90;;;;;;5042785;28;20407;-81
2022/06/29 04:10:05;;;;;;;8.37;7.63;;;21.90;99.90;;;;;;5045456;28;20442;-84
2022/06/29 04:12:49;;;;;;;9.27;8.37;;;21.90;99.90;;;;;;5041555;28;20399;-84
2022/06/29 04:15:35;;;;;;;9.43;8.53;;;21.90;99.90;;;;;;5025857;28;20505;-84
2022/06/29 04:18:19;;;;;;;10.00;9.20;;;22.00;99.90;;;;;;5037464;28;20473;-84
2022/06/29 04:21:07;;;;;;;8.60;7.90;;;22.00;99.90;;;;;;5040717;28;20418;-84
2022/06/29 04:23:51;;;;;;;9.77;7.70;;;22.00;99.90;;;;;;5034336;28;20423;-84
2022/06/29 04:26:36;;;;;;;8.30;7.60;;;22.00;99.90;;;;;;5026745;28;20462;-84
2022/06/29 04:29:20;;;;;;;8.30;7.50;;;22.10;99.90;;;;;;5040536;28;20903;-84
2022/06/29 04:32:05;;;;;;;8.23;7.40;;;22.00;99.90;;;;;;5040836;28;20395;-84
2022/06/29 04:34:49;;;;;;;8.10;7.50;;;21.80;99.90;;;;;;5040574;28;20526;-84
2022/06/29 04:37:36;;;;;;;14.60;10.00;;;21.90;99.90;;;;;;5040297;28;20464;-84
2022/06/29 04:40:20;;;;;;;8.87;8.03;;;21.80;99.90;;;;;;5040118;28;20411;-84
2022/06/29 04:43:05;;;;;;;9.30;8.40;;;22.00;99.90;;;;;;5038506;28;20439;-84
2022/06/29 04:48:49;;;;;;;8.70;7.90;;;22.00;99.90;;;;;;5034225;28;20509;-84
2022/06/29 04:51:35;;;;;;;8.83;8.03;;;21.90;99.90;;;;;;5034325;28;20433;-84
2022/06/29 04:54:19;;;;;;;9.33;8.37;;;21.90;99.90;;;;;;5039724;28;20466;-83
2022/06/29 04:57:06;;;;;;;8.73;7.90;;;22.00;99.90;;;;;;5040961;28;20460;-83
2022/06/29 04:59:51;;;;;;;9.07;8.17;;;21.80;99.90;;;;;;5044001;28;20500;-84
2022/06/29 05:02:35;;;;;;;8.50;7.80;;;21.60;99.90;;;;;;5035126;28;20498;-84
2022/06/29 05:05:20;;;;;;;9.30;8.03;;;21.60;99.90;;;;;;5040079;28;20805;-84
2022/06/29 05:08:05;;;;;;;9.97;8.97;;;21.60;99.90;;;;;;5039739;28;20459;-84
2022/06/29 05:10:49;;;;;;;11.60;7.80;;;21.80;99.90;;;;;;5051810;28;20480;-84
2022/06/29 05:13:34;;;;;;;8.90;8.00;;;21.60;99.90;;;;;;5031039;28;20397;-83
2022/06/29 05:16:20;;;;;;;10.03;8.43;;;21.70;99.90;;;;;;5033628;28;20503;-83
2022/06/29 05:19:04;;;;;;;9.47;8.57;;;21.80;99.90;;;;;;5040384;28;20481;-84
2022/06/29 05:21:48;;;;;;;8.67;7.87;;;22.00;99.90;;;;;;5043849;28;20899;-83
2022/06/29 05:24:33;;;;;;;8.80;7.97;;;22.20;99.90;;;;;;5045245;28;20457;-84
2022/06/29 05:27:18;;;;;;;10.10;8.50;;;22.10;99.90;;;;;;5041979;28;20426;-83
2022/06/29 05:30:03;;;;;;;9.67;8.77;;;22.10;99.90;;;;;;5029021;28;20422;-84
2022/06/29 05:32:48;;;;;;;9.37;8.57;;;22.30;99.90;;;;;;5040345;28;20485;-84
2022/06/29 05:35:33;;;;;;;8.83;7.57;;;22.30;99.90;;;;;;5035157;28;20777;-83
2022/06/29 05:38:18;;;;;;;9.63;8.50;;;22.40;99.90;;;;;;5049422;28;20453;-84
2022/06/29 05:41:03;;;;;;;9.60;8.70;;;22.60;99.90;;;;;;5052182;28;20454;-85
2022/06/29 05:43:51;;;;;;;11.40;8.40;;;22.70;99.90;;;;;;5042552;28;20744;-85
2022/06/29 05:46:36;;;;;;;9.50;8.53;;;22.80;99.90;;;;;;5039553;28;20515;-84
2022/06/29 05:49:20;;;;;;;8.27;7.37;;;23.00;99.90;;;;;;5055801;28;20434;-84
2022/06/29 05:52:07;;;;;;;11.43;7.40;;;23.00;99.90;;;;;;5058386;28;20430;-82
2022/06/29 05:54:51;;;;;;;7.37;6.60;;;23.10;99.90;;;;;;5047251;28;20468;-85
2022/06/29 05:57:35;;;;;;;10.27;9.17;;;22.90;99.90;;;;;;5038362;28;20450;-83
2022/06/29 06:00:20;;;;;;;8.90;8.10;;;23.00;99.90;;;;;;5055039;28;20523;-85
2022/06/29 06:03:05;;;;;;;8.13;7.10;;;23.00;99.90;;;;;;5048571;28;20554;-83
2022/06/29 06:05:50;;;;;;;7.97;7.27;;;23.00;99.90;;;;;;5048819;28;20446;-83
2022/06/29 06:08:35;;;;;;;10.23;7.47;;;22.80;99.90;;;;;;5022956;28;20434;-86
2022/06/29 06:11:20;;;;;;;8.03;7.43;;;22.70;99.90;;;;;;5024135;28;20530;-83
2022/06/29 06:14:04;;;;;;;7.70;6.97;;;22.50;99.90;;;;;;5029880;28;20476;-83
2022/06/29 06:16:49;;;;;;;7.97;7.20;;;22.70;99.90;;;;;;5031586;28;20422;-84
2022/06/29 06:19:33;;;;;;;7.63;6.90;;;22.60;99.90;;;;;;5015659;28;20414;-83
2022/06/29 06:22:18;;;;;;;11.80;7.00;;;22.60;99.90;;;;;;5035970;28;20434;-83
2022/06/29 06:25:03;;;;;;;8.80;6.33;;;22.60;99.90;;;;;;5020500;28;20440;-84
2022/06/29 06:27:47;;;;;;;9.83;5.93;;;22.80;99.90;;;;;;5033600;28;20433;-84
2022/06/29 06:30:32;;;;;;;6.47;5.77;;;22.60;99.90;;;;;;5004193;28;20449;-81
2022/06/29 06:33:17;;;;;;;8.80;7.33;;;22.70;99.90;;;;;;5031829;28;20446;-84
2022/06/29 06:36:02;;;;;;;7.77;7.03;;;22.70;99.90;;;;;;5034653;28;20977;-85
2022/06/29 06:38:46;;;;;;;11.60;7.03;;;22.40;99.90;;;;;;5029857;28;20430;-85
2022/06/29 06:41:31;;;;;;;7.30;6.60;;;22.50;99.90;;;;;;5032133;28;20871;-83
2022/06/29 06:44:15;;;;;;;5.73;5.20;;;22.60;99.90;;;;;;5033541;28;20430;-85
2022/06/29 06:47:00;;;;;;;8.13;7.07;;;22.70;99.90;;;;;;5014475;28;20423;-85
2022/06/29 06:49:45;;;;;;;6.63;6.00;;;22.70;99.90;;;;;;5035239;28;20443;-83
2022/06/29 06:52:30;;;;;;;6.77;6.17;;;22.50;99.90;;;;;;5010400;28;20900;-85
2022/06/29 06:55:14;;;;;;;7.30;6.53;;;22.60;99.90;;;;;;5032400;28;20478;-85
2022/06/29 06:57:59;;;;;;;8.87;5.77;;;22.70;99.90;;;;;;5033408;28;20419;-84
2022/06/29 07:00:43;;;;;;;7.97;7.20;;;22.90;99.90;;;;;;5021499;28;20524;-81
2022/06/29 07:03:31;;;;;;;7.07;5.93;;;22.90;99.90;;;;;;5053016;28;20487;-84
2022/06/29 07:06:19;;;;;;;8.00;7.23;;;23.00;99.90;;;;;;5038002;28;20441;-82
2022/06/29 07:09:05;;;;;;;8.70;7.70;;;23.00;99.90;;;;;;5042068;28;20504;-83
2022/06/29 07:11:49;;;;;;;8.03;7.33;;;23.00;99.90;;;;;;5034242;28;20446;-84
2022/06/29 07:14:34;;;;;;;7.27;6.50;;;22.70;99.90;;;;;;5021203;28;20466;-82
2022/06/29 07:17:18;;;;;;;7.20;6.60;;;22.70;99.90;;;;;;5002801;28;20437;-85
2022/06/29 07:20:06;;;;;;;8.23;7.53;;;22.90;99.90;;;;;;5032203;28;20517;-84
2022/06/29 07:22:51;;;;;;;8.60;7.80;;;23.00;99.90;;;;;;5035666;28;20501;-85
2022/06/29 07:25:36;;;;;;;7.20;6.60;;;22.90;99.90;;;;;;5034892;28;20849;-82
2022/06/29 07:28:21;;;;;;;7.77;6.60;;;23.00;99.90;;;;;;5033595;28;20481;-82
2022/06/29 07:31:07;;;;;;;7.90;7.10;;;22.90;99.90;;;;;;5034279;28;20430;-85
2022/06/29 07:33:52;;;;;;;7.00;6.50;;;22.70;99.90;;;;;;5029292;28;20434;-85
2022/06/29 07:36:37;;;;;;;7.47;6.80;;;22.80;99.90;;;;;;5014950;28;20495;-84
2022/06/29 07:39:21;;;;;;;8.23;6.97;;;22.90;99.90;;;;;;5034111;28;20454;-85
2022/06/29 07:42:06;;;;;;;9.10;6.93;;;23.10;99.90;;;;;;5013279;28;20879;-84
2022/06/29 07:44:51;;;;;;;8.47;5.93;;;23.10;99.90;;;;;;5039297;28;20429;-86
2022/06/29 07:47:36;;;;;;;5.50;5.00;;;23.30;99.90;;;;;;5039771;28;20434;-84
2022/06/29 07:50:21;;;;;;;8.30;6.33;;;23.60;99.90;;;;;;5057870;28;20910;-85
2022/06/29 07:53:05;;;;;;;9.97;6.63;;;23.60;99.90;;;;;;5035005;28;20517;-83
2022/06/29 07:55:50;;;;;;;12.23;7.47;;;23.40;99.90;;;;;;5045947;28;20983;-84
2022/06/29 07:58:35;;;;;;;7.80;7.17;;;23.40;99.90;;;;;;5045677;28;20465;-82
2022/06/29 08:01:19;;;;;;;8.57;6.83;;;23.40;99.90;;;;;;5044693;28;20476;-84
2022/06/29 08:04:04;;;;;;;8.60;6.10;;;23.90;99.90;;;;;;5034924;28;20834;-84
2022/06/29 08:06:49;;;;;;;5.67;5.23;;;24.40;99.90;;;;;;5048756;28;20434;-82
2022/06/29 08:09:34;;;;;;;6.90;6.30;;;24.40;99.90;;;;;;5046161;28;20462;-82
2022/06/29 08:12:20;;;;;;;6.60;5.90;;;24.30;99.90;;;;;;5041996;28;20444;-84
2022/06/29 08:15:18;;;;;;;6.77;5.60;;;24.00;99.90;;;;;;5053400;28;20475;-83
2022/06/29 08:18:04;;;;;;;8.20;5.93;;;24.20;99.90;;;;;;5029532;28;20434;-81
2022/06/29 08:20:49;;;;;;;8.23;6.00;;;24.50;99.90;;;;;;5025573;28;20474;-82
2022/06/29 08:23:34;;;;;;;6.20;5.70;;;24.70;99.90;;;;;;5026797;28;20457;-84
2022/06/29 08:26:19;;;;;;;10.43;8.37;;;24.70;99.90;;;;;;5029061;28;20434;-84
2022/06/29 08:29:04;;;;;;;5.97;5.40;;;24.40;99.90;;;;;;5003159;28;20489;-83
2022/06/29 08:31:48;;;;;;;9.00;5.80;;;24.60;99.90;;;;;;5019762;28;20438;-83
2022/06/29 08:34:40;;;;;;;12.33;6.10;;;24.30;99.90;;;;;;5020709;28;20462;-82
2022/06/29 08:37:25;;;;;;;6.80;5.17;;;24.20;99.90;;;;;;5027319;28;20534;-83
2022/06/29 08:40:14;;;;;;;6.00;5.50;;;24.30;99.90;;;;;;5013681;28;20517;-82
2022/06/29 08:42:59;;;;;;;6.93;6.20;;;24.20;99.90;;;;;;5015750;28;20586;-82
2022/06/29 08:45:46;;;;;;;5.90;5.40;;;24.70;99.90;;;;;;5035510;28;20446;-81
2022/06/29 08:48:31;;;;;;;6.10;5.60;;;24.60;99.90;;;;;;5043867;28;20437;-81
2022/06/29 08:51:18;;;;;;;7.00;6.30;;;24.40;99.90;;;;;;5048506;28;20206;-83
2022/06/29 08:54:06;;;;;;;7.30;6.10;;;24.50;99.90;;;;;;5069023;28;20514;-82
2022/06/29 08:56:53;;;;;;;6.20;5.60;;;24.90;99.90;;;;;;5035637;28;20901;-84
2022/06/29 08:59:39;;;;;;;6.70;6.10;;;25.20;99.90;;;;;;5046598;28;20946;-83
2022/06/29 09:02:23;;;;;;;6.00;5.50;;;25.30;99.90;;;;;;5034442;28;20545;-87
2022/06/29 09:05:09;;;;;;;9.60;6.07;;;25.40;99.90;;;;;;5056847;28;20484;-86
2022/06/29 09:07:53;;;;;;;5.90;5.30;;;25.50;99.90;;;;;;5048819;28;20433;-87
2022/06/29 09:10:38;;;;;;;7.10;6.47;;;25.70;99.90;;;;;;5063892;28;21022;-86
2022/06/29 09:13:24;;;;;;;7.50;6.73;;;24.50;99.90;;;;;;5056777;28;20518;-86
2022/06/29 09:16:09;;;;;;;6.90;6.30;;;25.10;99.90;;;;;;5040857;28;20519;-85
2022/06/29 09:18:57;;;;;;;7.00;6.40;;;25.40;99.90;;;;;;5047657;28;20575;-86
2022/06/29 09:21:52;;;;;;;6.40;5.77;;;25.30;99.90;;;;;;5048809;28;20992;-84
2022/06/29 09:24:36;;;;;;;5.97;5.33;;;25.40;99.90;;;;;;5056770;28;20486;-86
2022/06/29 09:27:24;;;;;;;7.03;6.43;;;25.30;99.90;;;;;;5054223;28;20506;-86
2022/06/29 09:30:27;;;;;;;6.23;5.27;;;25.30;99.90;;;;;;5051318;28;20475;-85
2022/06/29 09:33:11;;;;;;;8.07;6.10;;;25.40;99.90;;;;;;5057072;28;20433;-84
2022/06/29 09:36:14;;;;;;;6.13;5.57;;;25.90;99.90;;;;;;5060898;28;20502;-83
2022/06/29 09:38:59;;;;;;;5.83;5.27;;;26.00;99.90;;;;;;5058060;28;20460;-82
2022/06/29 09:41:44;;;;;;;5.57;5.07;;;25.90;99.90;;;;;;5042189;28;20511;-82
2022/06/29 09:44:29;;;;;;;5.53;5.03;;;25.80;99.90;;;;;;5059361;28;20528;-83
2022/06/29 09:47:16;;;;;;;5.23;4.73;;;26.00;99.90;;;;;;5055925;28;20444;-81
2022/06/29 09:50:01;;;;;;;6.80;6.00;;;26.10;99.90;;;;;;5056952;28;20434;-82
2022/06/29 09:52:48;;;;;;;6.43;5.80;;;25.90;99.90;;;;;;5041434;28;20488;-81
2022/06/29 09:55:34;;;;;;;7.67;6.87;;;26.00;99.90;;;;;;5034425;28;20489;-83
2022/06/29 09:58:28;;;;;;;5.23;4.73;;;26.10;99.90;;;;;;5041941;28;20437;-82
2022/06/29 10:04:13;;;;;;;15.40;8.93;;;25.70;99.90;;;;;;5057246;28;20529;-81
2022/06/29 10:06:58;;;;;;;5.90;5.40;;;25.60;99.90;;;;;;5039899;28;20501;-82
2022/06/29 10:09:42;;;;;;;5.87;5.27;;;25.40;99.90;;;;;;5052983;28;20510;-83
2022/06/29 10:16:27;;;;;;;4.70;4.40;;;25.30;99.90;;;;;;5043372;28;20480;-83
2022/06/29 10:19:42;;;;;;;6.53;5.60;;;25.30;99.90;;;;;;5051228;28;20433;-80
2022/06/29 10:22:29;;;;;;;6.40;5.73;;;25.30;99.90;;;;;;5052339;28;20619;-84
2022/06/29 10:25:14;;;;;;;6.33;5.83;;;25.30;99.90;;;;;;5050756;28;20555;-87
2022/06/29 10:28:34;;;;;;;5.40;4.90;;;25.30;99.90;;;;;;5017045;28;20467;-85
2022/06/29 10:31:38;;;;;;;6.20;5.60;;;25.50;99.90;;;;;;5003312;28;20454;-85
2022/06/29 10:34:41;;;;;;;7.20;6.30;;;25.40;99.90;;;;;;4984588;28;20990;-88
2022/06/29 10:37:25;;;;;;;5.90;5.40;;;25.60;99.90;;;;;;4992733;28;20479;-84
2022/06/29 10:40:16;;;;;;;8.60;7.53;;;25.90;99.90;;;;;;4978957;28;20475;-85
2022/06/29 10:43:20;;;;;;;6.57;5.57;;;26.20;99.90;;;;;;4981328;28;20434;-85
2022/06/29 10:46:05;;;;;;;7.10;5.93;;;26.40;99.90;;;;;;4994207;28;20943;-85
2022/06/29 10:49:20;;;;;;;8.07;7.20;;;26.30;99.90;;;;;;4994475;28;20435;-85
2022/06/29 10:52:09;;;;;;;6.90;6.20;;;26.10;99.90;;;;;;4974517;28;20455;-87
2022/06/29 10:54:54;;;;;;;8.93;6.07;;;26.40;99.90;;;;;;4992210;28;20475;-85
2022/06/29 10:57:42;;;;;;;7.30;5.73;;;25.90;99.90;;;;;;4992739;28;20480;-87
2022/06/29 11:00:31;;;;;;;8.77;6.53;;;26.00;99.90;;;;;;5011200;28;20594;-84
2022/06/29 11:03:18;;;;;;;7.23;6.30;;;26.30;99.90;;;;;;5052821;28;20521;-85
2022/06/29 11:12:06;;;;;;;8.20;6.97;;;26.70;99.90;;;;;;5061887;28;20555;-83
2022/06/29 11:17:51;;;;;;;7.23;6.57;;;27.30;99.90;;;;;;5068800;28;20443;-82
2022/06/29 11:20:36;;;;;;;7.70;7.03;;;27.10;99.90;;;;;;5051608;28;20516;-84
2022/06/29 11:23:27;;;;;;;6.90;6.20;;;27.50;99.90;;;;;;5061721;28;20878;-82
2022/06/29 11:26:15;;;;;;;6.03;5.50;;;27.40;99.90;;;;;;5055497;28;20637;-84
2022/06/29 11:29:01;;;;;;;6.77;6.17;;;27.70;99.90;;;;;;5044082;28;20498;-86
2022/06/29 11:32:00;;;;;;;8.83;7.73;;;27.60;99.90;;;;;;5065156;28;20480;-85
2022/06/29 11:34:45;;;;;;;6.63;5.93;;;27.40;99.90;;;;;;5054800;28;20460;-83
2022/06/29 11:37:30;;;;;;;6.80;6.30;;;26.90;99.90;;;;;;5058024;28;20499;-88
2022/06/29 11:40:17;;;;;;;6.70;6.20;;;26.90;99.90;;;;;;5047543;28;20471;-86
2022/06/29 11:43:12;;;;;;;10.53;9.43;;;27.00;99.90;;;;;;5059443;28;20448;-86
2022/06/29 11:46:39;;;;;;;8.20;7.17;;;26.80;99.90;;;;;;5040811;28;20457;-86
2022/06/29 11:52:33;;;;;;;6.73;6.23;;;27.50;99.90;;;;;;5019550;28;20439;-86
2022/06/29 11:55:40;;;;;;;8.00;5.90;;;27.00;99.90;;;;;;5026936;28;20497;-87
2022/06/29 11:58:25;;;;;;;9.90;7.23;;;27.40;99.90;;;;;;5029461;28;20526;-86
2022/06/29 12:01:13;;;;;;;10.13;6.50;;;27.60;99.90;;;;;;5030066;28;20621;-87
2022/06/29 12:04:01;;;;;;;7.20;6.50;;;27.00;99.90;;;;;;5034379;28;20501;-85
2022/06/29 12:06:45;;;;;;;7.50;6.70;;;27.30;99.90;;;;;;5027967;28;21876;-86
2022/06/29 12:09:30;;;;;;;11.43;6.90;;;27.30;99.90;;;;;;5027555;28;20457;-86
2022/06/29 12:12:16;;;;;;;6.70;6.00;;;28.30;99.90;;;;;;5029160;28;20477;-87
2022/06/29 12:15:00;;;;;;;8.07;7.40;;;28.00;99.90;;;;;;5018152;28;20508;-87
2022/06/29 12:17:45;;;;;;;7.97;7.17;;;27.80;99.90;;;;;;5050624;28;20436;-84
2022/06/29 12:20:30;;;;;;;11.80;6.90;;;28.60;99.90;;;;;;5050456;28;20528;-86
2022/06/29 12:23:15;;;;;;;6.73;6.23;;;28.40;99.90;;;;;;5049793;28;20469;-86
2022/06/29 12:26:01;;;;;;;10.43;7.07;;;28.30;99.90;;;;;;5055701;28;20439;-86
2022/06/29 12:28:46;;;;;;;10.40;6.57;;;28.40;99.90;;;;;;5066896;28;20469;-87
2022/06/29 12:31:31;;;;;;;8.30;7.50;;;28.40;99.90;;;;;;5067424;28;20433;-86
2022/06/29 12:34:36;;;;;;;6.57;5.87;;;28.60;99.90;;;;;;5067079;28;20601;-86
2022/06/29 12:37:21;;;;;;;7.30;6.60;;;28.60;99.90;;;;;;5056850;28;20490;-85
2022/06/29 12:40:06;;;;;;;6.40;5.80;;;28.40;99.90;;;;;;5048977;28;20447;-85
2022/06/29 12:42:52;;;;;;;5.83;5.33;;;29.30;99.90;;;;;;5060590;28;20439;-84
2022/06/29 12:45:36;;;;;;;7.40;6.70;;;29.70;99.90;;;;;;5026500;28;20220;-85
2022/06/29 12:48:21;;;;;;;8.07;6.20;;;29.40;99.90;;;;;;5045189;28;20214;-87
2022/06/29 12:51:06;;;;;;;8.80;6.80;;;29.80;99.90;;;;;;5059989;28;20218;-87
2022/06/29 12:53:51;;;;;;;6.75;6.15;;;31.00;99.90;;;;;;5056643;28;20233;-85
2022/06/29 12:56:35;;;;;;;8.40;6.15;;;29.80;99.90;;;;;;5062380;28;20234;-86
2022/06/29 12:59:22;;;;;;;5.68;5.28;;;29.10;99.90;;;;;;5059384;28;20201;-83
2022/06/29 13:02:07;;;;;;;9.57;6.23;;;29.30;99.90;;;;;;5063785;28;20302;-85
2022/06/29 13:04:55;;;;;;;7.00;5.97;;;30.20;99.90;;;;;;5058141;28;20662;-87
2022/06/29 13:07:41;;;;;;;5.80;5.30;;;30.70;99.90;;;;;;5026654;28;20230;-85
2022/06/29 13:10:28;;;;;;;6.95;6.35;;;30.00;99.90;;;;;;5050028;28;20274;-86
2022/06/29 13:13:12;;;;;;;5.78;5.25;;;30.40;99.90;;;;;;5056880;28;20253;-86
2022/06/29 13:15:58;;;;;;;6.20;5.43;;;31.40;99.90;;;;;;5046478;28;20210;-82
2022/06/29 13:18:43;;;;;;;5.70;5.22;;;30.00;99.90;;;;;;5060962;28;20226;-80
2022/06/29 13:21:28;;;;;;;7.82;5.85;;;30.30;99.90;;;;;;5058892;28;20244;-81
2022/06/29 13:24:12;;;;;;;8.00;6.18;;;30.30;99.90;;;;;;5028324;28;20178;-83
2022/06/29 13:26:57;;;;;;;5.47;5.03;;;30.00;99.90;;;;;;5046459;28;20285;-83
2022/06/29 13:29:57;;;;;;;5.60;4.55;;;30.20;99.90;;;;;;5030906;28;20225;-80
2022/06/29 13:32:42;;;;;;;4.72;4.20;;;30.30;99.90;;;;;;5011039;28;20195;-81
2022/06/29 13:35:26;;;;;;;6.22;4.45;;;31.00;99.90;;;;;;5021681;28;20239;-81
2022/06/29 13:38:13;;;;;;;6.13;5.28;;;30.70;99.90;;;;;;5040408;28;20222;-83
2022/06/29 13:40:58;;;;;;;7.05;5.30;;;30.00;99.90;;;;;;5031897;28;20304;-81
2022/06/29 13:43:42;;;;;;;7.97;5.88;;;29.50;99.90;;;;;;5032034;28;20198;-79
2022/06/29 13:46:28;;;;;;;5.00;4.60;;;29.60;99.90;;;;;;5027031;28;20686;-81
2022/06/29 13:49:12;;;;;;;5.57;5.10;;;29.70;99.90;;;;;;5029489;28;20198;-82
2022/06/29 13:51:57;;;;;;;5.97;5.30;;;29.80;99.90;;;;;;5034852;28;20198;-84
2022/06/29 13:54:42;;;;;;;6.30;5.60;;;29.70;99.90;;;;;;5019715;28;20226;-82
2022/06/29 13:57:26;;;;;;;6.97;5.07;;;29.90;99.90;;;;;;5047149;28;20248;-82
2022/06/29 14:00:11;;;;;;;6.17;5.60;;;29.90;99.90;;;;;;5042906;28;20270;-83
2022/06/29 14:02:56;;;;;;;7.83;5.57;;;29.30;99.90;;;;;;5024568;28;20627;-83
2022/06/29 14:05:41;;;;;;;6.43;6.03;;;28.90;99.90;;;;;;5050768;28;20959;-83
2022/06/29 14:08:25;;;;;;;5.77;4.30;;;28.80;99.90;;;;;;5023595;28;20432;-86
2022/06/29 14:11:10;;;;;;;6.47;5.90;;;28.80;99.90;;;;;;5037962;28;20514;-81
2022/06/29 14:13:54;;;;;;;13.30;5.70;;;28.80;99.90;;;;;;5042931;28;20389;-82
2022/06/29 14:16:39;;;;;;;5.47;4.50;;;28.80;99.90;;;;;;5053921;28;20515;-84
2022/06/29 14:19:24;;;;;;;5.83;5.33;;;28.90;99.90;;;;;;5038079;28;20953;-81
2022/06/29 14:22:08;;;;;;;5.77;5.27;;;28.80;99.90;;;;;;5038948;28;21052;-83
2022/06/29 14:24:53;;;;;;;6.40;5.80;;;28.70;99.90;;;;;;5038664;28;20421;-81
2022/06/29 14:27:38;;;;;;;7.67;5.47;;;28.70;99.90;;;;;;5038815;28;20758;-82
2022/06/29 14:30:22;;;;;;;8.27;5.40;;;29.00;99.90;;;;;;5050030;28;20440;-83
2022/06/29 14:33:07;;;;;;;9.93;5.70;;;29.20;99.90;;;;;;4997251;28;20447;-84
2022/06/29 14:35:51;;;;;;;5.80;4.60;;;29.80;99.90;;;;;;4973737;28;20455;-84
2022/06/29 14:38:36;;;;;;;6.03;5.03;;;29.60;99.90;;;;;;4990164;28;20868;-84
2022/06/29 14:41:20;;;;;;;5.10;4.60;;;29.60;99.90;;;;;;4980573;28;20587;-84
2022/06/29 14:44:05;;;;;;;5.13;4.53;;;29.30;99.90;;;;;;4983997;28;20443;-84
2022/06/29 14:46:50;;;;;;;5.90;5.27;;;29.00;99.90;;;;;;4981278;28;20558;-84
2022/06/29 14:49:34;;;;;;;6.43;5.80;;;28.80;99.90;;;;;;5004665;28;20463;-83
2022/06/29 14:52:18;;;;;;;6.03;5.33;;;29.00;99.90;;;;;;4987874;28;20458;-84